sensor_id;sensor_type;location;lat;lon;timestamp;P1;durP1;ratioP1;P2;durP2;ratioP2
11735;SDS011;5924;51.398;7.088;2023-02-28T00:01:16;7.10;;;6.40;;
11735;SDS011;5924;51.398;7.088;2023-02-28T00:03:42;13.03;;;7.00;;
11735;SDS011;5924;51.398;7.088;2023-02-28T00:06:07;7.50;;;6.40;;
11735;SDS011;5924;51.398;7.088;2023-02-28T00:08:34;6.30;;;5.63;;
11735;SDS011;5924;51.398;7.088;2023-02-28T00:11:01;7.17;;;5.90;;
11735;SDS011;5924;51.398;7.088;2023-02-28T00:13:28;7.93;;;6.70;;
11735;SDS011;5924;51.398;7.088;2023-02-28T00:16:04;6.10;;;5.60;;
11735;SDS011;5924;51.398;7.088;2023-02-28T00:18:31;7.47;;;5.80;;
11735;SDS011;5924;51.398;7.088;2023-02-28T00:20:58;10.53;;;5.80;;
11735;SDS011;5924;51.398;7.088;2023-02-28T00:23:24;9.40;;;5.40;;
11735;SDS011;5924;51.398;7.088;2023-02-28T00:25:50;6.87;;;4.90;;
11735;SDS011;5924;51.398;7.088;2023-02-28T00:28:16;8.80;;;4.63;;
11735;SDS011;5924;51.398;7.088;2023-02-28T00:30:42;5.03;;;4.73;;
11735;SDS011;5924;51.398;7.088;2023-02-28T00:33:08;4.80;;;4.40;;
11735;SDS011;5924;51.398;7.088;2023-02-28T00:35:33;6.13;;;5.37;;
11735;SDS011;5924;51.398;7.088;2023-02-28T00:37:59;4.60;;;4.30;;
11735;SDS011;5924;51.398;7.088;2023-02-28T00:40:25;5.40;;;4.90;;
11735;SDS011;5924;51.398;7.088;2023-02-28T00:42:50;10.43;;;4.93;;
11735;SDS011;5924;51.398;7.088;2023-02-28T00:45:16;5.13;;;4.73;;
11735;SDS011;5924;51.398;7.088;2023-02-28T00:47:42;4.77;;;4.47;;
11735;SDS011;5924;51.398;7.088;2023-02-28T00:50:07;5.33;;;4.73;;
11735;SDS011;5924;51.398;7.088;2023-02-28T00:52:34;5.30;;;4.80;;
11735;SDS011;5924;51.398;7.088;2023-02-28T00:54:59;6.97;;;5.60;;
11735;SDS011;5924;51.398;7.088;2023-02-28T00:57:25;4.90;;;4.60;;
11735;SDS011;5924;51.398;7.088;2023-02-28T00:59:51;5.60;;;5.13;;
11735;SDS011;5924;51.398;7.088;2023-02-28T01:02:19;6.07;;;5.50;;
11735;SDS011;5924;51.398;7.088;2023-02-28T01:04:45;5.00;;;4.63;;
11735;SDS011;5924;51.398;7.088;2023-02-28T01:07:12;5.27;;;4.90;;
11735;SDS011;5924;51.398;7.088;2023-02-28T01:09:38;7.80;;;5.47;;
11735;SDS011;5924;51.398;7.088;2023-02-28T01:12:04;6.90;;;5.37;;
11735;SDS011;5924;51.398;7.088;2023-02-28T01:14:30;4.40;;;4.10;;
11735;SDS011;5924;51.398;7.088;2023-02-28T01:16:55;6.23;;;4.63;;
11735;SDS011;5924;51.398;7.088;2023-02-28T01:19:21;4.53;;;4.20;;
11735;SDS011;5924;51.398;7.088;2023-02-28T01:21:46;4.83;;;4.47;;
11735;SDS011;5924;51.398;7.088;2023-02-28T01:24:12;6.00;;;4.70;;
11735;SDS011;5924;51.398;7.088;2023-02-28T01:26:38;5.37;;;4.67;;
11735;SDS011;5924;51.398;7.088;2023-02-28T01:29:04;5.00;;;4.60;;
11735;SDS011;5924;51.398;7.088;2023-02-28T01:31:29;6.23;;;4.47;;
11735;SDS011;5924;51.398;7.088;2023-02-28T01:33:55;6.83;;;4.73;;
11735;SDS011;5924;51.398;7.088;2023-02-28T01:36:21;6.33;;;4.23;;
11735;SDS011;5924;51.398;7.088;2023-02-28T01:38:48;4.47;;;4.10;;
11735;SDS011;5924;51.398;7.088;2023-02-28T01:41:25;7.40;;;5.30;;
11735;SDS011;5924;51.398;7.088;2023-02-28T01:46:22;4.50;;;4.20;;
11735;SDS011;5924;51.398;7.088;2023-02-28T01:48:50;4.27;;;4.07;;
11735;SDS011;5924;51.398;7.088;2023-02-28T01:51:26;5.13;;;4.20;;
11735;SDS011;5924;51.398;7.088;2023-02-28T01:53:55;4.70;;;4.30;;
11735;SDS011;5924;51.398;7.088;2023-02-28T01:56:27;5.33;;;4.87;;
11735;SDS011;5924;51.398;7.088;2023-02-28T01:58:55;13.53;;;4.80;;
11735;SDS011;5924;51.398;7.088;2023-02-28T02:01:21;5.13;;;4.80;;
11735;SDS011;5924;51.398;7.088;2023-02-28T02:03:53;6.63;;;5.43;;
11735;SDS011;5924;51.398;7.088;2023-02-28T02:06:30;9.53;;;5.57;;
11735;SDS011;5924;51.398;7.088;2023-02-28T02:08:59;5.23;;;4.83;;
11735;SDS011;5924;51.398;7.088;2023-02-28T02:11:25;4.90;;;4.30;;
11735;SDS011;5924;51.398;7.088;2023-02-28T02:29:05;4.60;;;4.30;;
11735;SDS011;5924;51.398;7.088;2023-02-28T02:32:14;4.97;;;4.53;;
11735;SDS011;5924;51.398;7.088;2023-02-28T02:40:38;4.00;;;3.80;;
11735;SDS011;5924;51.398;7.088;2023-02-28T02:43:13;4.97;;;4.57;;
11735;SDS011;5924;51.398;7.088;2023-02-28T02:45:45;4.23;;;4.10;;
11735;SDS011;5924;51.398;7.088;2023-02-28T02:48:19;4.07;;;3.77;;
11735;SDS011;5924;51.398;7.088;2023-02-28T02:50:51;4.07;;;3.80;;
11735;SDS011;5924;51.398;7.088;2023-02-28T02:53:24;4.53;;;4.10;;
11735;SDS011;5924;51.398;7.088;2023-02-28T02:55:55;4.80;;;4.60;;
11735;SDS011;5924;51.398;7.088;2023-02-28T02:58:24;4.87;;;4.50;;
11735;SDS011;5924;51.398;7.088;2023-02-28T03:00:54;5.20;;;4.80;;
11735;SDS011;5924;51.398;7.088;2023-02-28T03:03:24;3.80;;;3.70;;
11735;SDS011;5924;51.398;7.088;2023-02-28T03:05:54;4.73;;;4.33;;
11735;SDS011;5924;51.398;7.088;2023-02-28T03:08:21;4.67;;;4.30;;
11735;SDS011;5924;51.398;7.088;2023-02-28T03:10:50;4.93;;;4.00;;
11735;SDS011;5924;51.398;7.088;2023-02-28T03:13:24;4.60;;;4.40;;
11735;SDS011;5924;51.398;7.088;2023-02-28T03:30:03;6.07;;;4.63;;
11735;SDS011;5924;51.398;7.088;2023-02-28T03:32:47;5.93;;;4.67;;
11735;SDS011;5924;51.398;7.088;2023-02-28T03:35:23;4.57;;;4.10;;
11735;SDS011;5924;51.398;7.088;2023-02-28T03:38:12;6.57;;;4.47;;
11735;SDS011;5924;51.398;7.088;2023-02-28T03:40:51;4.03;;;3.83;;
11735;SDS011;5924;51.398;7.088;2023-02-28T03:43:26;4.70;;;4.30;;
11735;SDS011;5924;51.398;7.088;2023-02-28T03:45:57;6.20;;;4.20;;
11735;SDS011;5924;51.398;7.088;2023-02-28T03:48:31;5.10;;;4.63;;
11735;SDS011;5924;51.398;7.088;2023-02-28T03:51:02;4.40;;;3.97;;
11735;SDS011;5924;51.398;7.088;2023-02-28T03:53:32;5.00;;;4.60;;
11735;SDS011;5924;51.398;7.088;2023-02-28T03:56:03;3.80;;;3.60;;
11735;SDS011;5924;51.398;7.088;2023-02-28T03:58:38;8.63;;;4.00;;
11735;SDS011;5924;51.398;7.088;2023-02-28T04:01:38;4.17;;;3.87;;
11735;SDS011;5924;51.398;7.088;2023-02-28T04:04:06;6.10;;;5.13;;
11735;SDS011;5924;51.398;7.088;2023-02-28T04:06:34;4.17;;;3.93;;
11735;SDS011;5924;51.398;7.088;2023-02-28T04:09:00;8.53;;;3.70;;
11735;SDS011;5924;51.398;7.088;2023-02-28T04:11:29;4.63;;;4.40;;
11735;SDS011;5924;51.398;7.088;2023-02-28T04:14:03;4.60;;;4.40;;
11735;SDS011;5924;51.398;7.088;2023-02-28T04:16:30;5.90;;;5.20;;
11735;SDS011;5924;51.398;7.088;2023-02-28T04:18:57;5.63;;;4.90;;
11735;SDS011;5924;51.398;7.088;2023-02-28T04:21:37;5.60;;;4.63;;
11735;SDS011;5924;51.398;7.088;2023-02-28T04:24:05;6.17;;;5.63;;
11735;SDS011;5924;51.398;7.088;2023-02-28T04:26:33;5.20;;;4.90;;
11735;SDS011;5924;51.398;7.088;2023-02-28T04:29:00;5.80;;;5.40;;
11735;SDS011;5924;51.398;7.088;2023-02-28T04:31:27;5.90;;;5.40;;
11735;SDS011;5924;51.398;7.088;2023-02-28T04:33:53;6.07;;;5.53;;
11735;SDS011;5924;51.398;7.088;2023-02-28T04:36:19;5.87;;;5.30;;
11735;SDS011;5924;51.398;7.088;2023-02-28T04:38:45;6.00;;;5.40;;
11735;SDS011;5924;51.398;7.088;2023-02-28T04:41:11;7.60;;;4.87;;
11735;SDS011;5924;51.398;7.088;2023-02-28T04:43:38;8.43;;;5.27;;
11735;SDS011;5924;51.398;7.088;2023-02-28T04:46:04;5.60;;;5.17;;
11735;SDS011;5924;51.398;7.088;2023-02-28T04:48:31;9.97;;;5.13;;
11735;SDS011;5924;51.398;7.088;2023-02-28T04:51:03;5.13;;;4.70;;
11735;SDS011;5924;51.398;7.088;2023-02-28T04:53:30;5.87;;;5.33;;
11735;SDS011;5924;51.398;7.088;2023-02-28T04:55:56;5.77;;;5.10;;
11735;SDS011;5924;51.398;7.088;2023-02-28T04:58:22;5.77;;;5.20;;
11735;SDS011;5924;51.398;7.088;2023-02-28T05:00:49;6.43;;;4.67;;
11735;SDS011;5924;51.398;7.088;2023-02-28T05:03:18;6.23;;;5.73;;
11735;SDS011;5924;51.398;7.088;2023-02-28T05:05:44;6.10;;;5.10;;
11735;SDS011;5924;51.398;7.088;2023-02-28T05:08:09;5.40;;;4.90;;
11735;SDS011;5924;51.398;7.088;2023-02-28T05:10:35;5.47;;;5.07;;
11735;SDS011;5924;51.398;7.088;2023-02-28T05:13:01;5.57;;;4.90;;
11735;SDS011;5924;51.398;7.088;2023-02-28T05:15:27;11.20;;;6.50;;
11735;SDS011;5924;51.398;7.088;2023-02-28T05:17:52;6.57;;;5.97;;
11735;SDS011;5924;51.398;7.088;2023-02-28T05:20:18;6.40;;;5.50;;
11735;SDS011;5924;51.398;7.088;2023-02-28T05:22:44;7.43;;;5.90;;
11735;SDS011;5924;51.398;7.088;2023-02-28T05:25:27;6.53;;;5.77;;
11735;SDS011;5924;51.398;7.088;2023-02-28T05:27:53;11.93;;;6.10;;
11735;SDS011;5924;51.398;7.088;2023-02-28T05:30:19;8.93;;;5.40;;
11735;SDS011;5924;51.398;7.088;2023-02-28T05:32:49;8.33;;;5.50;;
11735;SDS011;5924;51.398;7.088;2023-02-28T05:35:15;5.63;;;4.93;;
11735;SDS011;5924;51.398;7.088;2023-02-28T05:37:41;4.87;;;4.47;;
11735;SDS011;5924;51.398;7.088;2023-02-28T05:40:07;5.40;;;4.60;;
11735;SDS011;5924;51.398;7.088;2023-02-28T05:42:36;4.77;;;4.30;;
11735;SDS011;5924;51.398;7.088;2023-02-28T05:45:02;4.83;;;4.40;;
11735;SDS011;5924;51.398;7.088;2023-02-28T05:47:29;6.20;;;5.70;;
11735;SDS011;5924;51.398;7.088;2023-02-28T05:49:54;5.20;;;4.50;;
11735;SDS011;5924;51.398;7.088;2023-02-28T05:52:20;5.20;;;4.80;;
11735;SDS011;5924;51.398;7.088;2023-02-28T05:54:46;9.03;;;5.53;;
11735;SDS011;5924;51.398;7.088;2023-02-28T05:57:12;8.20;;;5.30;;
11735;SDS011;5924;51.398;7.088;2023-02-28T05:59:38;4.90;;;4.60;;
11735;SDS011;5924;51.398;7.088;2023-02-28T06:02:05;12.20;;;7.93;;
11735;SDS011;5924;51.398;7.088;2023-02-28T06:04:31;10.63;;;7.63;;
11735;SDS011;5924;51.398;7.088;2023-02-28T06:06:57;12.33;;;7.30;;
11735;SDS011;5924;51.398;7.088;2023-02-28T06:09:23;13.33;;;8.63;;
11735;SDS011;5924;51.398;7.088;2023-02-28T06:11:48;12.33;;;8.70;;
11735;SDS011;5924;51.398;7.088;2023-02-28T06:14:15;11.70;;;8.70;;
11735;SDS011;5924;51.398;7.088;2023-02-28T06:16:42;9.40;;;7.57;;
11735;SDS011;5924;51.398;7.088;2023-02-28T06:19:09;9.37;;;7.63;;
11735;SDS011;5924;51.398;7.088;2023-02-28T06:21:36;6.30;;;5.83;;
11735;SDS011;5924;51.398;7.088;2023-02-28T06:24:02;7.00;;;6.37;;
11735;SDS011;5924;51.398;7.088;2023-02-28T06:26:28;6.40;;;5.90;;
11735;SDS011;5924;51.398;7.088;2023-02-28T06:28:55;7.37;;;6.57;;
11735;SDS011;5924;51.398;7.088;2023-02-28T06:31:21;8.37;;;6.90;;
11735;SDS011;5924;51.398;7.088;2023-02-28T06:33:48;8.27;;;7.53;;
11735;SDS011;5924;51.398;7.088;2023-02-28T06:36:14;8.07;;;6.90;;
11735;SDS011;5924;51.398;7.088;2023-02-28T06:38:40;6.27;;;5.73;;
11735;SDS011;5924;51.398;7.088;2023-02-28T06:41:07;6.80;;;6.20;;
11735;SDS011;5924;51.398;7.088;2023-02-28T06:43:34;10.10;;;5.60;;
11735;SDS011;5924;51.398;7.088;2023-02-28T06:46:02;7.10;;;5.80;;
11735;SDS011;5924;51.398;7.088;2023-02-28T06:48:29;6.80;;;5.80;;
11735;SDS011;5924;51.398;7.088;2023-02-28T06:51:02;8.57;;;7.40;;
11735;SDS011;5924;51.398;7.088;2023-02-28T06:53:31;6.00;;;5.40;;
11735;SDS011;5924;51.398;7.088;2023-02-28T06:55:57;9.47;;;6.70;;
11735;SDS011;5924;51.398;7.088;2023-02-28T06:58:23;7.17;;;5.97;;
11735;SDS011;5924;51.398;7.088;2023-02-28T07:00:52;9.97;;;5.80;;
11735;SDS011;5924;51.398;7.088;2023-02-28T07:03:18;6.33;;;5.73;;
11735;SDS011;5924;51.398;7.088;2023-02-28T07:05:44;6.00;;;5.50;;
11735;SDS011;5924;51.398;7.088;2023-02-28T07:08:10;5.90;;;5.40;;
11735;SDS011;5924;51.398;7.088;2023-02-28T07:10:37;9.27;;;6.13;;
11735;SDS011;5924;51.398;7.088;2023-02-28T07:13:03;8.83;;;7.10;;
11735;SDS011;5924;51.398;7.088;2023-02-28T07:15:29;16.90;;;6.47;;
11735;SDS011;5924;51.398;7.088;2023-02-28T07:17:55;9.37;;;7.33;;
11735;SDS011;5924;51.398;7.088;2023-02-28T07:20:21;8.00;;;6.43;;
11735;SDS011;5924;51.398;7.088;2023-02-28T07:22:48;11.50;;;7.47;;
11735;SDS011;5924;51.398;7.088;2023-02-28T07:25:20;8.80;;;7.03;;
11735;SDS011;5924;51.398;7.088;2023-02-28T07:27:47;11.13;;;7.20;;
11735;SDS011;5924;51.398;7.088;2023-02-28T07:30:12;8.77;;;8.00;;
11735;SDS011;5924;51.398;7.088;2023-02-28T07:32:38;7.90;;;7.20;;
11735;SDS011;5924;51.398;7.088;2023-02-28T07:35:04;9.53;;;7.77;;
11735;SDS011;5924;51.398;7.088;2023-02-28T07:37:30;12.40;;;7.87;;
11735;SDS011;5924;51.398;7.088;2023-02-28T07:40:04;9.80;;;7.47;;
11735;SDS011;5924;51.398;7.088;2023-02-28T07:42:33;10.07;;;6.73;;
11735;SDS011;5924;51.398;7.088;2023-02-28T07:44:59;9.93;;;7.40;;
11735;SDS011;5924;51.398;7.088;2023-02-28T07:47:25;10.47;;;7.60;;
11735;SDS011;5924;51.398;7.088;2023-02-28T07:49:51;10.80;;;8.27;;
11735;SDS011;5924;51.398;7.088;2023-02-28T07:52:17;15.27;;;8.67;;
11735;SDS011;5924;51.398;7.088;2023-02-28T07:54:42;13.10;;;8.80;;
11735;SDS011;5924;51.398;7.088;2023-02-28T07:57:08;12.50;;;8.80;;
11735;SDS011;5924;51.398;7.088;2023-02-28T07:59:34;10.70;;;8.50;;
11735;SDS011;5924;51.398;7.088;2023-02-28T08:02:00;9.67;;;6.90;;
11735;SDS011;5924;51.398;7.088;2023-02-28T08:04:25;8.97;;;8.00;;
11735;SDS011;5924;51.398;7.088;2023-02-28T08:06:51;15.63;;;8.00;;
11735;SDS011;5924;51.398;7.088;2023-02-28T08:09:18;8.60;;;7.73;;
11735;SDS011;5924;51.398;7.088;2023-02-28T08:11:44;14.10;;;9.50;;
11735;SDS011;5924;51.398;7.088;2023-02-28T08:14:09;17.23;;;10.13;;
11735;SDS011;5924;51.398;7.088;2023-02-28T08:16:35;16.20;;;10.00;;
11735;SDS011;5924;51.398;7.088;2023-02-28T08:19:01;13.50;;;10.40;;
11735;SDS011;5924;51.398;7.088;2023-02-28T08:21:26;11.73;;;7.80;;
11735;SDS011;5924;51.398;7.088;2023-02-28T08:23:52;12.07;;;8.03;;
11735;SDS011;5924;51.398;7.088;2023-02-28T08:26:18;7.67;;;7.10;;
11735;SDS011;5924;51.398;7.088;2023-02-28T08:28:44;9.23;;;6.70;;
11735;SDS011;5924;51.398;7.088;2023-02-28T08:31:11;17.40;;;5.90;;
11735;SDS011;5924;51.398;7.088;2023-02-28T08:33:38;6.93;;;6.13;;
11735;SDS011;5924;51.398;7.088;2023-02-28T08:36:04;5.97;;;5.57;;
11735;SDS011;5924;51.398;7.088;2023-02-28T08:38:31;5.73;;;5.07;;
11735;SDS011;5924;51.398;7.088;2023-02-28T08:40:57;4.67;;;4.27;;
11735;SDS011;5924;51.398;7.088;2023-02-28T08:43:25;5.00;;;4.80;;
11735;SDS011;5924;51.398;7.088;2023-02-28T08:45:51;5.93;;;4.80;;
11735;SDS011;5924;51.398;7.088;2023-02-28T08:48:17;6.20;;;4.50;;
11735;SDS011;5924;51.398;7.088;2023-02-28T08:50:43;3.63;;;3.47;;
11735;SDS011;5924;51.398;7.088;2023-02-28T08:53:08;4.87;;;3.77;;
11735;SDS011;5924;51.398;7.088;2023-02-28T08:55:34;3.77;;;3.43;;
11735;SDS011;5924;51.398;7.088;2023-02-28T08:58:00;3.60;;;3.37;;
11735;SDS011;5924;51.398;7.088;2023-02-28T09:00:26;9.47;;;3.73;;
11735;SDS011;5924;51.398;7.088;2023-02-28T09:02:52;5.13;;;3.20;;
11735;SDS011;5924;51.398;7.088;2023-02-28T09:05:17;3.80;;;3.70;;
11735;SDS011;5924;51.398;7.088;2023-02-28T09:07:43;3.57;;;3.23;;
11735;SDS011;5924;51.398;7.088;2023-02-28T09:10:09;4.10;;;3.00;;
11735;SDS011;5924;51.398;7.088;2023-02-28T09:12:35;3.93;;;3.80;;
11735;SDS011;5924;51.398;7.088;2023-02-28T09:15:01;6.20;;;3.20;;
11735;SDS011;5924;51.398;7.088;2023-02-28T09:17:27;2.93;;;2.87;;
11735;SDS011;5924;51.398;7.088;2023-02-28T09:19:53;3.13;;;3.03;;
11735;SDS011;5924;51.398;7.088;2023-02-28T09:22:18;3.10;;;3.00;;
11735;SDS011;5924;51.398;7.088;2023-02-28T09:24:44;3.87;;;3.67;;
11735;SDS011;5924;51.398;7.088;2023-02-28T09:27:10;4.07;;;3.70;;
11735;SDS011;5924;51.398;7.088;2023-02-28T09:29:36;3.53;;;3.27;;
11735;SDS011;5924;51.398;7.088;2023-02-28T09:32:02;2.60;;;2.50;;
11735;SDS011;5924;51.398;7.088;2023-02-28T09:34:30;2.53;;;2.33;;
11735;SDS011;5924;51.398;7.088;2023-02-28T09:36:56;2.80;;;2.67;;
11735;SDS011;5924;51.398;7.088;2023-02-28T09:39:22;6.40;;;2.33;;
11735;SDS011;5924;51.398;7.088;2023-02-28T09:41:51;2.67;;;2.43;;
11735;SDS011;5924;51.398;7.088;2023-02-28T09:49:44;2.47;;;2.37;;
11735;SDS011;5924;51.398;7.088;2023-02-28T09:52:14;2.60;;;2.50;;
11735;SDS011;5924;51.398;7.088;2023-02-28T09:54:42;3.60;;;2.67;;
11735;SDS011;5924;51.398;7.088;2023-02-28T10:05:21;2.90;;;2.80;;
11735;SDS011;5924;51.398;7.088;2023-02-28T10:12:55;2.67;;;2.57;;
11735;SDS011;5924;51.398;7.088;2023-02-28T10:15:27;2.60;;;2.50;;
11735;SDS011;5924;51.398;7.088;2023-02-28T10:18:00;2.20;;;2.00;;
11735;SDS011;5924;51.398;7.088;2023-02-28T10:20:31;2.80;;;2.60;;
11735;SDS011;5924;51.398;7.088;2023-02-28T10:23:14;2.20;;;2.10;;
11735;SDS011;5924;51.398;7.088;2023-02-28T10:25:59;3.17;;;2.43;;
11735;SDS011;5924;51.398;7.088;2023-02-28T10:28:26;2.20;;;2.20;;
11735;SDS011;5924;51.398;7.088;2023-02-28T10:30:56;2.13;;;2.13;;
11735;SDS011;5924;51.398;7.088;2023-02-28T10:35:52;2.00;;;2.00;;
11735;SDS011;5924;51.398;7.088;2023-02-28T10:38:23;2.77;;;2.67;;
11735;SDS011;5924;51.398;7.088;2023-02-28T10:40:51;2.80;;;2.60;;
11735;SDS011;5924;51.398;7.088;2023-02-28T10:43:18;2.40;;;2.30;;
11735;SDS011;5924;51.398;7.088;2023-02-28T10:48:27;1.77;;;1.67;;
11735;SDS011;5924;51.398;7.088;2023-02-28T10:50:57;2.20;;;2.20;;
11735;SDS011;5924;51.398;7.088;2023-02-28T10:56:06;2.03;;;1.93;;
11735;SDS011;5924;51.398;7.088;2023-02-28T11:01:40;1.70;;;1.60;;
11735;SDS011;5924;51.398;7.088;2023-02-28T11:06:56;1.70;;;1.70;;
11735;SDS011;5924;51.398;7.088;2023-02-28T11:09:28;1.73;;;1.63;;
11735;SDS011;5924;51.398;7.088;2023-02-28T11:12:02;1.53;;;1.53;;
11735;SDS011;5924;51.398;7.088;2023-02-28T11:14:40;2.83;;;1.63;;
11735;SDS011;5924;51.398;7.088;2023-02-28T11:17:23;1.80;;;1.70;;
11735;SDS011;5924;51.398;7.088;2023-02-28T11:19:58;1.80;;;1.40;;
11735;SDS011;5924;51.398;7.088;2023-02-28T11:22:36;1.50;;;1.50;;
11735;SDS011;5924;51.398;7.088;2023-02-28T11:25:09;1.70;;;1.70;;
11735;SDS011;5924;51.398;7.088;2023-02-28T11:27:51;2.80;;;2.47;;
11735;SDS011;5924;51.398;7.088;2023-02-28T11:32:50;1.70;;;1.70;;
11735;SDS011;5924;51.398;7.088;2023-02-28T11:35:32;2.20;;;2.10;;
11735;SDS011;5924;51.398;7.088;2023-02-28T11:38:01;1.87;;;1.57;;
11735;SDS011;5924;51.398;7.088;2023-02-28T11:40:31;2.87;;;1.80;;
11735;SDS011;5924;51.398;7.088;2023-02-28T11:51:32;2.30;;;2.20;;
11735;SDS011;5924;51.398;7.088;2023-02-28T11:54:18;2.00;;;2.00;;
11735;SDS011;5924;51.398;7.088;2023-02-28T11:57:06;1.67;;;1.53;;
11735;SDS011;5924;51.398;7.088;2023-02-28T11:59:44;3.80;;;1.60;;
11735;SDS011;5924;51.398;7.088;2023-02-28T12:03:34;1.63;;;1.60;;
11735;SDS011;5924;51.398;7.088;2023-02-28T12:06:09;3.03;;;2.07;;
11735;SDS011;5924;51.398;7.088;2023-02-28T12:08:57;2.30;;;2.13;;
11735;SDS011;5924;51.398;7.088;2023-02-28T12:20:28;2.00;;;2.00;;
11735;SDS011;5924;51.398;7.088;2023-02-28T12:23:28;2.23;;;2.23;;
11735;SDS011;5924;51.398;7.088;2023-02-28T12:26:38;3.70;;;2.30;;
11735;SDS011;5924;51.398;7.088;2023-02-28T12:31:45;11.63;;;2.10;;
11735;SDS011;5924;51.398;7.088;2023-02-28T12:34:26;2.30;;;2.20;;
11735;SDS011;5924;51.398;7.088;2023-02-28T12:36:56;2.10;;;2.10;;
11735;SDS011;5924;51.398;7.088;2023-02-28T12:39:26;2.23;;;2.10;;
11735;SDS011;5924;51.398;7.088;2023-02-28T12:42:13;2.10;;;2.10;;
11735;SDS011;5924;51.398;7.088;2023-02-28T12:44:52;2.63;;;2.30;;
11735;SDS011;5924;51.398;7.088;2023-02-28T12:47:23;1.77;;;1.77;;
11735;SDS011;5924;51.398;7.088;2023-02-28T12:49:50;1.70;;;1.70;;
11735;SDS011;5924;51.398;7.088;2023-02-28T12:55:13;1.80;;;1.80;;
11735;SDS011;5924;51.398;7.088;2023-02-28T12:58:01;1.80;;;1.80;;
11735;SDS011;5924;51.398;7.088;2023-02-28T13:11:38;3.03;;;2.30;;
11735;SDS011;5924;51.398;7.088;2023-02-28T13:14:29;2.20;;;2.10;;
11735;SDS011;5924;51.398;7.088;2023-02-28T13:17:02;2.47;;;2.10;;
11735;SDS011;5924;51.398;7.088;2023-02-28T13:19:32;2.40;;;2.40;;
11735;SDS011;5924;51.398;7.088;2023-02-28T13:22:01;2.23;;;2.13;;
11735;SDS011;5924;51.398;7.088;2023-02-28T13:24:39;2.40;;;2.30;;
11735;SDS011;5924;51.398;7.088;2023-02-28T13:29:57;2.13;;;2.03;;
11735;SDS011;5924;51.398;7.088;2023-02-28T13:47:28;2.10;;;2.00;;
11735;SDS011;5924;51.398;7.088;2023-02-28T13:55:41;2.53;;;2.53;;
11735;SDS011;5924;51.398;7.088;2023-02-28T14:06:46;4.20;;;2.33;;
11735;SDS011;5924;51.398;7.088;2023-02-28T14:11:55;2.93;;;2.83;;
11735;SDS011;5924;51.398;7.088;2023-02-28T14:14:55;2.53;;;2.43;;
11735;SDS011;5924;51.398;7.088;2023-02-28T14:17:14;2.20;;;2.20;;
11735;SDS011;5924;51.398;7.088;2023-02-28T14:19:43;2.77;;;2.53;;
11735;SDS011;5924;51.398;7.088;2023-02-28T14:27:58;3.27;;;3.07;;
11735;SDS011;5924;51.398;7.088;2023-02-28T14:33:27;2.83;;;2.63;;
11735;SDS011;5924;51.398;7.088;2023-02-28T14:41:22;2.67;;;2.60;;
11735;SDS011;5924;51.398;7.088;2023-02-28T14:44:00;2.37;;;2.30;;
11735;SDS011;5924;51.398;7.088;2023-02-28T14:46:28;7.07;;;2.80;;
11735;SDS011;5924;51.398;7.088;2023-02-28T14:49:02;4.13;;;2.90;;
11735;SDS011;5924;51.398;7.088;2023-02-28T14:51:30;2.87;;;2.67;;
11735;SDS011;5924;51.398;7.088;2023-02-28T14:53:57;2.47;;;2.37;;
11735;SDS011;5924;51.398;7.088;2023-02-28T14:56:30;2.73;;;2.73;;
11735;SDS011;5924;51.398;7.088;2023-02-28T14:59:23;2.50;;;2.40;;
11735;SDS011;5924;51.398;7.088;2023-02-28T15:01:51;2.80;;;2.80;;
11735;SDS011;5924;51.398;7.088;2023-02-28T15:04:25;3.00;;;2.80;;
11735;SDS011;5924;51.398;7.088;2023-02-28T15:12:40;4.10;;;3.33;;
11735;SDS011;5924;51.398;7.088;2023-02-28T15:15:14;3.60;;;3.40;;
11735;SDS011;5924;51.398;7.088;2023-02-28T15:17:43;3.23;;;3.03;;
11735;SDS011;5924;51.398;7.088;2023-02-28T15:20:12;3.60;;;3.33;;
11735;SDS011;5924;51.398;7.088;2023-02-28T15:22:40;3.50;;;3.20;;
11735;SDS011;5924;51.398;7.088;2023-02-28T15:25:06;3.93;;;3.10;;
11735;SDS011;5924;51.398;7.088;2023-02-28T15:27:33;2.97;;;2.73;;
11735;SDS011;5924;51.398;7.088;2023-02-28T15:30:06;2.60;;;2.60;;
11735;SDS011;5924;51.398;7.088;2023-02-28T15:32:34;3.10;;;2.83;;
11735;SDS011;5924;51.398;7.088;2023-02-28T15:35:25;2.53;;;2.47;;
11735;SDS011;5924;51.398;7.088;2023-02-28T15:37:55;3.07;;;2.97;;
11735;SDS011;5924;51.398;7.088;2023-02-28T15:40:32;2.70;;;2.60;;
11735;SDS011;5924;51.398;7.088;2023-02-28T15:43:18;3.53;;;3.30;;
11735;SDS011;5924;51.398;7.088;2023-02-28T15:46:03;3.90;;;3.80;;
11735;SDS011;5924;51.398;7.088;2023-02-28T15:48:42;2.90;;;2.80;;
11735;SDS011;5924;51.398;7.088;2023-02-28T15:56:29;3.30;;;3.10;;
11735;SDS011;5924;51.398;7.088;2023-02-28T15:58:58;3.13;;;3.03;;
11735;SDS011;5924;51.398;7.088;2023-02-28T16:01:30;2.90;;;2.70;;
11735;SDS011;5924;51.398;7.088;2023-02-28T16:04:00;3.43;;;3.13;;
11735;SDS011;5924;51.398;7.088;2023-02-28T16:06:38;3.17;;;3.00;;
11735;SDS011;5924;51.398;7.088;2023-02-28T16:09:08;3.10;;;2.90;;
11735;SDS011;5924;51.398;7.088;2023-02-28T16:11:38;3.40;;;3.23;;
11735;SDS011;5924;51.398;7.088;2023-02-28T16:14:14;3.60;;;3.50;;
11735;SDS011;5924;51.398;7.088;2023-02-28T16:16:46;3.50;;;2.90;;
11735;SDS011;5924;51.398;7.088;2023-02-28T16:19:13;4.00;;;3.13;;
11735;SDS011;5924;51.398;7.088;2023-02-28T16:21:39;2.90;;;2.90;;
11735;SDS011;5924;51.398;7.088;2023-02-28T16:24:05;3.17;;;3.00;;
11735;SDS011;5924;51.398;7.088;2023-02-28T16:26:31;3.10;;;3.00;;
11735;SDS011;5924;51.398;7.088;2023-02-28T16:28:59;3.30;;;3.20;;
11735;SDS011;5924;51.398;7.088;2023-02-28T16:31:28;2.80;;;2.70;;
11735;SDS011;5924;51.398;7.088;2023-02-28T16:33:54;3.33;;;2.90;;
11735;SDS011;5924;51.398;7.088;2023-02-28T16:36:22;3.30;;;3.20;;
11735;SDS011;5924;51.398;7.088;2023-02-28T16:38:51;17.57;;;9.03;;
11735;SDS011;5924;51.398;7.088;2023-02-28T16:41:20;4.30;;;4.00;;
11735;SDS011;5924;51.398;7.088;2023-02-28T16:43:49;3.50;;;3.30;;
11735;SDS011;5924;51.398;7.088;2023-02-28T16:46:17;3.90;;;3.60;;
11735;SDS011;5924;51.398;7.088;2023-02-28T16:48:44;5.33;;;3.57;;
11735;SDS011;5924;51.398;7.088;2023-02-28T16:51:11;3.77;;;3.47;;
11735;SDS011;5924;51.398;7.088;2023-02-28T16:53:38;4.80;;;3.70;;
11735;SDS011;5924;51.398;7.088;2023-02-28T16:56:04;3.83;;;3.53;;
11735;SDS011;5924;51.398;7.088;2023-02-28T16:58:32;3.10;;;3.00;;
11735;SDS011;5924;51.398;7.088;2023-02-28T17:01:00;3.93;;;3.23;;
11735;SDS011;5924;51.398;7.088;2023-02-28T17:03:29;3.13;;;3.03;;
11735;SDS011;5924;51.398;7.088;2023-02-28T17:05:55;4.30;;;3.40;;
11735;SDS011;5924;51.398;7.088;2023-02-28T17:08:21;3.40;;;3.20;;
11735;SDS011;5924;51.398;7.088;2023-02-28T17:10:46;2.33;;;2.33;;
11735;SDS011;5924;51.398;7.088;2023-02-28T17:13:12;3.20;;;3.10;;
11735;SDS011;5924;51.398;7.088;2023-02-28T17:15:38;2.93;;;2.83;;
11735;SDS011;5924;51.398;7.088;2023-02-28T17:18:05;3.43;;;3.30;;
11735;SDS011;5924;51.398;7.088;2023-02-28T17:20:31;3.63;;;2.77;;
11735;SDS011;5924;51.398;7.088;2023-02-28T17:22:57;3.50;;;3.40;;
11735;SDS011;5924;51.398;7.088;2023-02-28T17:25:23;6.10;;;3.57;;
11735;SDS011;5924;51.398;7.088;2023-02-28T17:27:49;3.90;;;3.70;;
11735;SDS011;5924;51.398;7.088;2023-02-28T17:32:46;4.33;;;4.03;;
11735;SDS011;5924;51.398;7.088;2023-02-28T17:35:13;3.60;;;3.40;;
11735;SDS011;5924;51.398;7.088;2023-02-28T17:37:39;3.67;;;3.47;;
11735;SDS011;5924;51.398;7.088;2023-02-28T17:40:09;3.77;;;3.57;;
11735;SDS011;5924;51.398;7.088;2023-02-28T17:42:39;3.17;;;3.07;;
11735;SDS011;5924;51.398;7.088;2023-02-28T17:45:04;4.07;;;3.70;;
11735;SDS011;5924;51.398;7.088;2023-02-28T17:47:30;3.70;;;3.50;;
11735;SDS011;5924;51.398;7.088;2023-02-28T17:49:56;3.37;;;3.20;;
11735;SDS011;5924;51.398;7.088;2023-02-28T17:52:21;4.10;;;3.80;;
11735;SDS011;5924;51.398;7.088;2023-02-28T17:54:47;3.80;;;3.50;;
11735;SDS011;5924;51.398;7.088;2023-02-28T17:57:16;4.60;;;4.10;;
11735;SDS011;5924;51.398;7.088;2023-02-28T17:59:42;4.40;;;4.13;;
11735;SDS011;5924;51.398;7.088;2023-02-28T18:02:12;5.00;;;4.50;;
11735;SDS011;5924;51.398;7.088;2023-02-28T18:04:38;6.90;;;4.20;;